sensor_id;sensor_type;location;lat;lon;timestamp;P1;durP1;ratioP1;P2;durP2;ratioP2
17173;SDS011;8702;48.130;-1.696;2023-04-24T00:01:52;5.63;;;3.10;;
17173;SDS011;8702;48.130;-1.696;2023-04-24T00:04:21;6.33;;;2.83;;
17173;SDS011;8702;48.130;-1.696;2023-04-24T00:06:51;5.60;;;3.07;;
17173;SDS011;8702;48.130;-1.696;2023-04-24T00:09:22;6.00;;;2.83;;
17173;SDS011;8702;48.130;-1.696;2023-04-24T00:11:49;7.63;;;3.30;;
17173;SDS011;8702;48.130;-1.696;2023-04-24T00:14:17;7.93;;;3.23;;
17173;SDS011;8702;48.130;-1.696;2023-04-24T00:16:45;7.47;;;3.30;;
17173;SDS011;8702;48.130;-1.696;2023-04-24T00:19:17;5.70;;;2.83;;
17173;SDS011;8702;48.130;-1.696;2023-04-24T00:21:47;6.03;;;2.90;;
17173;SDS011;8702;48.130;-1.696;2023-04-24T00:24:15;5.63;;;2.83;;
17173;SDS011;8702;48.130;-1.696;2023-04-24T00:26:43;5.80;;;3.30;;
17173;SDS011;8702;48.130;-1.696;2023-04-24T00:29:10;9.13;;;3.10;;
17173;SDS011;8702;48.130;-1.696;2023-04-24T00:31:37;6.03;;;3.13;;
17173;SDS011;8702;48.130;-1.696;2023-04-24T00:34:04;5.07;;;2.77;;
17173;SDS011;8702;48.130;-1.696;2023-04-24T00:36:33;4.93;;;3.03;;
17173;SDS011;8702;48.130;-1.696;2023-04-24T00:39:00;7.57;;;2.97;;
17173;SDS011;8702;48.130;-1.696;2023-04-24T00:41:27;8.43;;;3.47;;
17173;SDS011;8702;48.130;-1.696;2023-04-24T00:43:54;7.00;;;3.10;;
17173;SDS011;8702;48.130;-1.696;2023-04-24T00:46:22;6.40;;;3.07;;
17173;SDS011;8702;48.130;-1.696;2023-04-24T00:48:49;6.50;;;3.53;;
17173;SDS011;8702;48.130;-1.696;2023-04-24T00:51:17;6.23;;;2.90;;
17173;SDS011;8702;48.130;-1.696;2023-04-24T00:53:45;8.80;;;3.37;;
17173;SDS011;8702;48.130;-1.696;2023-04-24T00:56:12;6.03;;;2.73;;
17173;SDS011;8702;48.130;-1.696;2023-04-24T00:58:39;7.47;;;2.60;;
17173;SDS011;8702;48.130;-1.696;2023-04-24T01:01:06;6.87;;;3.37;;
17173;SDS011;8702;48.130;-1.696;2023-04-24T01:03:34;5.63;;;3.17;;
17173;SDS011;8702;48.130;-1.696;2023-04-24T01:06:03;5.80;;;2.83;;
17173;SDS011;8702;48.130;-1.696;2023-04-24T01:08:31;6.47;;;2.83;;
17173;SDS011;8702;48.130;-1.696;2023-04-24T01:11:00;6.87;;;3.30;;
17173;SDS011;8702;48.130;-1.696;2023-04-24T01:13:30;6.33;;;3.13;;
17173;SDS011;8702;48.130;-1.696;2023-04-24T01:15:58;7.53;;;3.70;;
17173;SDS011;8702;48.130;-1.696;2023-04-24T01:18:26;7.87;;;3.30;;
17173;SDS011;8702;48.130;-1.696;2023-04-24T01:20:54;9.97;;;3.50;;
17173;SDS011;8702;48.130;-1.696;2023-04-24T01:23:25;8.60;;;3.80;;
17173;SDS011;8702;48.130;-1.696;2023-04-24T01:25:53;9.70;;;4.00;;
17173;SDS011;8702;48.130;-1.696;2023-04-24T01:28:20;7.87;;;4.07;;
17173;SDS011;8702;48.130;-1.696;2023-04-24T01:30:47;7.50;;;3.63;;
17173;SDS011;8702;48.130;-1.696;2023-04-24T01:33:15;11.30;;;3.93;;
17173;SDS011;8702;48.130;-1.696;2023-04-24T01:35:42;7.13;;;3.67;;
17173;SDS011;8702;48.130;-1.696;2023-04-24T01:38:09;6.53;;;3.57;;
17173;SDS011;8702;48.130;-1.696;2023-04-24T01:43:06;8.40;;;3.50;;
17173;SDS011;8702;48.130;-1.696;2023-04-24T01:45:33;7.53;;;3.37;;
17173;SDS011;8702;48.130;-1.696;2023-04-24T01:48:00;5.33;;;3.40;;
17173;SDS011;8702;48.130;-1.696;2023-04-24T01:50:27;7.50;;;3.73;;
17173;SDS011;8702;48.130;-1.696;2023-04-24T01:52:55;7.77;;;3.87;;
17173;SDS011;8702;48.130;-1.696;2023-04-24T01:55:27;10.10;;;4.00;;
17173;SDS011;8702;48.130;-1.696;2023-04-24T01:57:58;7.37;;;3.67;;
17173;SDS011;8702;48.130;-1.696;2023-04-24T02:00:27;9.03;;;3.93;;
17173;SDS011;8702;48.130;-1.696;2023-04-24T02:02:54;9.33;;;4.10;;
17173;SDS011;8702;48.130;-1.696;2023-04-24T02:05:21;8.80;;;3.80;;
17173;SDS011;8702;48.130;-1.696;2023-04-24T02:07:48;10.73;;;3.87;;
17173;SDS011;8702;48.130;-1.696;2023-04-24T02:10:15;7.93;;;3.60;;
17173;SDS011;8702;48.130;-1.696;2023-04-24T02:12:41;9.93;;;4.00;;
17173;SDS011;8702;48.130;-1.696;2023-04-24T02:15:10;10.30;;;4.00;;
17173;SDS011;8702;48.130;-1.696;2023-04-24T02:17:38;6.80;;;3.33;;
17173;SDS011;8702;48.130;-1.696;2023-04-24T02:20:05;6.93;;;3.37;;
17173;SDS011;8702;48.130;-1.696;2023-04-24T02:22:33;6.57;;;3.33;;
17173;SDS011;8702;48.130;-1.696;2023-04-24T02:25:00;9.63;;;4.20;;
17173;SDS011;8702;48.130;-1.696;2023-04-24T02:27:27;6.87;;;3.50;;
17173;SDS011;8702;48.130;-1.696;2023-04-24T02:29:54;9.23;;;4.00;;
17173;SDS011;8702;48.130;-1.696;2023-04-24T02:32:22;9.00;;;3.27;;
17173;SDS011;8702;48.130;-1.696;2023-04-24T02:34:49;11.47;;;3.20;;
17173;SDS011;8702;48.130;-1.696;2023-04-24T02:37:16;7.70;;;3.93;;
17173;SDS011;8702;48.130;-1.696;2023-04-24T02:39:43;6.43;;;3.47;;
17173;SDS011;8702;48.130;-1.696;2023-04-24T02:42:10;7.03;;;3.67;;
17173;SDS011;8702;48.130;-1.696;2023-04-24T02:44:37;7.80;;;3.40;;
17173;SDS011;8702;48.130;-1.696;2023-04-24T02:47:04;9.00;;;3.47;;
17173;SDS011;8702;48.130;-1.696;2023-04-24T02:49:33;8.43;;;3.40;;
17173;SDS011;8702;48.130;-1.696;2023-04-24T02:51:59;8.87;;;3.73;;
17173;SDS011;8702;48.130;-1.696;2023-04-24T02:54:26;7.30;;;3.50;;
17173;SDS011;8702;48.130;-1.696;2023-04-24T02:56:53;8.83;;;3.60;;
17173;SDS011;8702;48.130;-1.696;2023-04-24T02:59:21;7.63;;;3.37;;
17173;SDS011;8702;48.130;-1.696;2023-04-24T03:01:48;5.87;;;3.27;;
17173;SDS011;8702;48.130;-1.696;2023-04-24T03:04:15;8.77;;;3.60;;
17173;SDS011;8702;48.130;-1.696;2023-04-24T03:06:46;6.97;;;3.20;;
17173;SDS011;8702;48.130;-1.696;2023-04-24T03:09:13;7.33;;;3.40;;
17173;SDS011;8702;48.130;-1.696;2023-04-24T03:11:40;7.70;;;3.57;;
17173;SDS011;8702;48.130;-1.696;2023-04-24T03:14:07;7.77;;;3.27;;
17173;SDS011;8702;48.130;-1.696;2023-04-24T03:16:34;7.37;;;3.60;;
17173;SDS011;8702;48.130;-1.696;2023-04-24T03:19:01;6.40;;;3.27;;
17173;SDS011;8702;48.130;-1.696;2023-04-24T03:21:28;10.90;;;4.00;;
17173;SDS011;8702;48.130;-1.696;2023-04-24T03:23:57;9.10;;;4.10;;
17173;SDS011;8702;48.130;-1.696;2023-04-24T03:26:24;8.47;;;3.20;;
17173;SDS011;8702;48.130;-1.696;2023-04-24T03:28:51;8.63;;;3.57;;
17173;SDS011;8702;48.130;-1.696;2023-04-24T03:31:18;10.90;;;3.67;;
17173;SDS011;8702;48.130;-1.696;2023-04-24T03:33:46;8.10;;;3.67;;
17173;SDS011;8702;48.130;-1.696;2023-04-24T03:36:13;8.57;;;3.70;;
17173;SDS011;8702;48.130;-1.696;2023-04-24T03:38:40;8.53;;;3.50;;
17173;SDS011;8702;48.130;-1.696;2023-04-24T03:41:08;9.07;;;3.30;;
17173;SDS011;8702;48.130;-1.696;2023-04-24T03:43:35;8.03;;;3.33;;
17173;SDS011;8702;48.130;-1.696;2023-04-24T03:46:02;7.30;;;3.20;;
17173;SDS011;8702;48.130;-1.696;2023-04-24T03:48:29;9.77;;;3.10;;
17173;SDS011;8702;48.130;-1.696;2023-04-24T03:50:56;7.30;;;3.00;;
17173;SDS011;8702;48.130;-1.696;2023-04-24T03:53:23;6.70;;;3.23;;
17173;SDS011;8702;48.130;-1.696;2023-04-24T03:55:50;7.37;;;3.07;;
17173;SDS011;8702;48.130;-1.696;2023-04-24T03:58:18;9.93;;;3.10;;
17173;SDS011;8702;48.130;-1.696;2023-04-24T04:00:45;8.63;;;3.10;;
17173;SDS011;8702;48.130;-1.696;2023-04-24T04:03:12;5.83;;;3.27;;
17173;SDS011;8702;48.130;-1.696;2023-04-24T04:05:39;9.00;;;3.63;;
17173;SDS011;8702;48.130;-1.696;2023-04-24T04:08:06;8.23;;;3.27;;
17173;SDS011;8702;48.130;-1.696;2023-04-24T04:10:33;5.40;;;3.37;;
17173;SDS011;8702;48.130;-1.696;2023-04-24T04:13:00;5.40;;;3.13;;
17173;SDS011;8702;48.130;-1.696;2023-04-24T04:15:29;7.47;;;3.17;;
17173;SDS011;8702;48.130;-1.696;2023-04-24T04:17:56;5.73;;;3.00;;
17173;SDS011;8702;48.130;-1.696;2023-04-24T04:20:23;9.77;;;3.57;;
17173;SDS011;8702;48.130;-1.696;2023-04-24T04:22:50;6.83;;;3.00;;
17173;SDS011;8702;48.130;-1.696;2023-04-24T04:25:17;9.53;;;3.53;;
17173;SDS011;8702;48.130;-1.696;2023-04-24T04:27:44;10.70;;;3.50;;
17173;SDS011;8702;48.130;-1.696;2023-04-24T04:30:12;10.87;;;3.90;;
17173;SDS011;8702;48.130;-1.696;2023-04-24T04:32:41;5.67;;;3.17;;
17173;SDS011;8702;48.130;-1.696;2023-04-24T04:35:08;8.97;;;3.20;;
17173;SDS011;8702;48.130;-1.696;2023-04-24T04:37:35;8.23;;;3.57;;
17173;SDS011;8702;48.130;-1.696;2023-04-24T04:40:02;6.67;;;3.33;;
17173;SDS011;8702;48.130;-1.696;2023-04-24T04:42:32;9.30;;;3.13;;
17173;SDS011;8702;48.130;-1.696;2023-04-24T04:44:59;9.70;;;3.33;;
17173;SDS011;8702;48.130;-1.696;2023-04-24T04:47:27;7.93;;;3.33;;
17173;SDS011;8702;48.130;-1.696;2023-04-24T04:49:58;7.63;;;3.50;;
17173;SDS011;8702;48.130;-1.696;2023-04-24T04:52:25;6.80;;;3.20;;
17173;SDS011;8702;48.130;-1.696;2023-04-24T04:54:52;10.23;;;3.40;;
17173;SDS011;8702;48.130;-1.696;2023-04-24T04:57:19;8.37;;;3.67;;
17173;SDS011;8702;48.130;-1.696;2023-04-24T04:59:46;10.57;;;3.57;;
17173;SDS011;8702;48.130;-1.696;2023-04-24T05:02:13;7.40;;;3.20;;
17173;SDS011;8702;48.130;-1.696;2023-04-24T05:04:40;6.50;;;3.00;;
17173;SDS011;8702;48.130;-1.696;2023-04-24T05:07:09;12.43;;;3.50;;
17173;SDS011;8702;48.130;-1.696;2023-04-24T05:09:35;5.23;;;2.70;;
17173;SDS011;8702;48.130;-1.696;2023-04-24T05:12:03;9.13;;;3.23;;
17173;SDS011;8702;48.130;-1.696;2023-04-24T05:14:30;8.17;;;3.40;;
17173;SDS011;8702;48.130;-1.696;2023-04-24T05:16:57;9.37;;;3.77;;
17173;SDS011;8702;48.130;-1.696;2023-04-24T05:19:25;6.37;;;3.47;;
17173;SDS011;8702;48.130;-1.696;2023-04-24T05:21:52;6.10;;;3.43;;
17173;SDS011;8702;48.130;-1.696;2023-04-24T05:24:20;5.83;;;3.30;;
17173;SDS011;8702;48.130;-1.696;2023-04-24T05:26:47;8.80;;;3.50;;
17173;SDS011;8702;48.130;-1.696;2023-04-24T05:29:14;8.40;;;3.80;;
17173;SDS011;8702;48.130;-1.696;2023-04-24T05:31:41;8.07;;;3.37;;
17173;SDS011;8702;48.130;-1.696;2023-04-24T05:34:08;7.07;;;2.90;;
17173;SDS011;8702;48.130;-1.696;2023-04-24T05:36:36;9.57;;;3.43;;
17173;SDS011;8702;48.130;-1.696;2023-04-24T05:39:03;9.67;;;3.30;;
17173;SDS011;8702;48.130;-1.696;2023-04-24T05:41:32;6.47;;;3.43;;
17173;SDS011;8702;48.130;-1.696;2023-04-24T05:43:59;6.30;;;3.67;;
17173;SDS011;8702;48.130;-1.696;2023-04-24T05:46:26;8.83;;;4.00;;
17173;SDS011;8702;48.130;-1.696;2023-04-24T05:48:53;16.50;;;4.27;;
17173;SDS011;8702;48.130;-1.696;2023-04-24T05:51:20;5.40;;;3.37;;
17173;SDS011;8702;48.130;-1.696;2023-04-24T05:53:47;10.47;;;3.70;;
17173;SDS011;8702;48.130;-1.696;2023-04-24T05:56:14;6.60;;;3.30;;
17173;SDS011;8702;48.130;-1.696;2023-04-24T05:58:43;8.77;;;3.70;;
17173;SDS011;8702;48.130;-1.696;2023-04-24T06:01:11;8.50;;;3.70;;
17173;SDS011;8702;48.130;-1.696;2023-04-24T06:03:40;9.07;;;3.47;;
17173;SDS011;8702;48.130;-1.696;2023-04-24T06:06:07;7.47;;;3.23;;
17173;SDS011;8702;48.130;-1.696;2023-04-24T06:08:34;6.90;;;3.30;;
17173;SDS011;8702;48.130;-1.696;2023-04-24T06:11:01;6.30;;;3.13;;
17173;SDS011;8702;48.130;-1.696;2023-04-24T06:13:28;7.03;;;3.50;;
17173;SDS011;8702;48.130;-1.696;2023-04-24T06:15:57;11.50;;;3.83;;
17173;SDS011;8702;48.130;-1.696;2023-04-24T06:18:23;6.27;;;3.40;;
17173;SDS011;8702;48.130;-1.696;2023-04-24T06:20:50;10.87;;;3.83;;
17173;SDS011;8702;48.130;-1.696;2023-04-24T06:23:17;8.17;;;3.13;;
17173;SDS011;8702;48.130;-1.696;2023-04-24T06:25:44;6.63;;;3.10;;
17173;SDS011;8702;48.130;-1.696;2023-04-24T06:28:13;9.07;;;3.33;;
17173;SDS011;8702;48.130;-1.696;2023-04-24T06:30:39;6.00;;;3.27;;
17173;SDS011;8702;48.130;-1.696;2023-04-24T06:33:08;5.07;;;3.63;;
17173;SDS011;8702;48.130;-1.696;2023-04-24T06:35:35;8.57;;;3.53;;
17173;SDS011;8702;48.130;-1.696;2023-04-24T06:38:03;8.83;;;3.50;;
17173;SDS011;8702;48.130;-1.696;2023-04-24T06:40:30;5.70;;;3.07;;
17173;SDS011;8702;48.130;-1.696;2023-04-24T06:42:57;6.40;;;3.43;;
17173;SDS011;8702;48.130;-1.696;2023-04-24T06:45:25;9.40;;;3.10;;
17173;SDS011;8702;48.130;-1.696;2023-04-24T06:47:52;7.27;;;3.37;;
17173;SDS011;8702;48.130;-1.696;2023-04-24T06:50:20;8.30;;;3.40;;
17173;SDS011;8702;48.130;-1.696;2023-04-24T06:52:47;8.03;;;3.63;;
17173;SDS011;8702;48.130;-1.696;2023-04-24T06:55:14;7.13;;;3.20;;
17173;SDS011;8702;48.130;-1.696;2023-04-24T06:57:42;7.40;;;2.80;;
17173;SDS011;8702;48.130;-1.696;2023-04-24T07:00:10;4.93;;;3.10;;
17173;SDS011;8702;48.130;-1.696;2023-04-24T07:02:38;6.07;;;3.23;;
17173;SDS011;8702;48.130;-1.696;2023-04-24T07:05:05;3.97;;;2.73;;
17173;SDS011;8702;48.130;-1.696;2023-04-24T07:07:34;5.57;;;2.73;;
17173;SDS011;8702;48.130;-1.696;2023-04-24T07:10:03;5.30;;;2.87;;
17173;SDS011;8702;48.130;-1.696;2023-04-24T07:12:30;6.23;;;3.07;;
17173;SDS011;8702;48.130;-1.696;2023-04-24T07:14:58;7.00;;;3.13;;
17173;SDS011;8702;48.130;-1.696;2023-04-24T07:17:25;6.93;;;3.13;;
17173;SDS011;8702;48.130;-1.696;2023-04-24T07:19:52;5.33;;;3.03;;
17173;SDS011;8702;48.130;-1.696;2023-04-24T07:22:19;5.87;;;2.93;;
17173;SDS011;8702;48.130;-1.696;2023-04-24T07:24:47;5.47;;;3.07;;
17173;SDS011;8702;48.130;-1.696;2023-04-24T07:27:14;5.27;;;3.03;;
17173;SDS011;8702;48.130;-1.696;2023-04-24T07:29:41;5.00;;;2.90;;
17173;SDS011;8702;48.130;-1.696;2023-04-24T07:32:08;8.17;;;3.50;;
17173;SDS011;8702;48.130;-1.696;2023-04-24T07:34:35;5.17;;;2.73;;
17173;SDS011;8702;48.130;-1.696;2023-04-24T07:37:02;12.07;;;3.20;;
17173;SDS011;8702;48.130;-1.696;2023-04-24T07:39:29;10.33;;;3.43;;
17173;SDS011;8702;48.130;-1.696;2023-04-24T07:41:58;8.23;;;3.50;;
17173;SDS011;8702;48.130;-1.696;2023-04-24T07:44:27;6.17;;;3.40;;
17173;SDS011;8702;48.130;-1.696;2023-04-24T07:46:54;11.20;;;3.60;;
17173;SDS011;8702;48.130;-1.696;2023-04-24T07:49:22;6.67;;;3.43;;
17173;SDS011;8702;48.130;-1.696;2023-04-24T07:51:49;4.87;;;2.90;;
17173;SDS011;8702;48.130;-1.696;2023-04-24T07:54:16;6.27;;;3.10;;
17173;SDS011;8702;48.130;-1.696;2023-04-24T07:56:43;6.20;;;2.73;;
17173;SDS011;8702;48.130;-1.696;2023-04-24T07:59:11;8.10;;;3.23;;
17173;SDS011;8702;48.130;-1.696;2023-04-24T08:01:38;5.20;;;2.97;;
17173;SDS011;8702;48.130;-1.696;2023-04-24T08:04:05;3.43;;;2.83;;
17173;SDS011;8702;48.130;-1.696;2023-04-24T08:06:32;6.17;;;3.17;;
17173;SDS011;8702;48.130;-1.696;2023-04-24T08:08:59;6.60;;;3.00;;
17173;SDS011;8702;48.130;-1.696;2023-04-24T08:11:26;4.80;;;2.90;;
17173;SDS011;8702;48.130;-1.696;2023-04-24T08:13:55;9.00;;;3.30;;
17173;SDS011;8702;48.130;-1.696;2023-04-24T08:16:23;4.23;;;2.63;;
17173;SDS011;8702;48.130;-1.696;2023-04-24T08:18:52;4.47;;;3.00;;
17173;SDS011;8702;48.130;-1.696;2023-04-24T08:21:19;8.57;;;3.30;;
17173;SDS011;8702;48.130;-1.696;2023-04-24T08:23:46;4.03;;;2.60;;
17173;SDS011;8702;48.130;-1.696;2023-04-24T08:26:13;7.37;;;2.83;;
17173;SDS011;8702;48.130;-1.696;2023-04-24T08:28:40;6.27;;;2.50;;
17173;SDS011;8702;48.130;-1.696;2023-04-24T08:31:10;6.03;;;2.40;;
17173;SDS011;8702;48.130;-1.696;2023-04-24T08:33:38;4.83;;;2.93;;
17173;SDS011;8702;48.130;-1.696;2023-04-24T08:36:06;3.97;;;2.40;;
17173;SDS011;8702;48.130;-1.696;2023-04-24T08:38:33;6.10;;;2.70;;
17173;SDS011;8702;48.130;-1.696;2023-04-24T08:41:01;5.37;;;2.90;;
17173;SDS011;8702;48.130;-1.696;2023-04-24T08:43:30;7.47;;;2.67;;
17173;SDS011;8702;48.130;-1.696;2023-04-24T08:45:59;3.87;;;2.60;;
17173;SDS011;8702;48.130;-1.696;2023-04-24T08:48:26;6.47;;;2.87;;
17173;SDS011;8702;48.130;-1.696;2023-04-24T08:50:55;6.03;;;2.70;;
17173;SDS011;8702;48.130;-1.696;2023-04-24T08:53:22;4.67;;;2.50;;
17173;SDS011;8702;48.130;-1.696;2023-04-24T08:55:52;3.00;;;2.10;;
17173;SDS011;8702;48.130;-1.696;2023-04-24T08:58:21;5.83;;;2.50;;
17173;SDS011;8702;48.130;-1.696;2023-04-24T09:00:49;7.10;;;2.73;;
17173;SDS011;8702;48.130;-1.696;2023-04-24T09:03:16;5.43;;;1.87;;
17173;SDS011;8702;48.130;-1.696;2023-04-24T09:05:44;6.33;;;2.30;;
17173;SDS011;8702;48.130;-1.696;2023-04-24T09:08:16;5.00;;;2.30;;
17173;SDS011;8702;48.130;-1.696;2023-04-24T09:10:45;7.43;;;2.40;;
17173;SDS011;8702;48.130;-1.696;2023-04-24T09:13:12;5.37;;;2.50;;
17173;SDS011;8702;48.130;-1.696;2023-04-24T09:15:40;6.33;;;2.90;;
17173;SDS011;8702;48.130;-1.696;2023-04-24T09:18:07;5.33;;;2.47;;
17173;SDS011;8702;48.130;-1.696;2023-04-24T09:20:34;8.50;;;2.43;;
17173;SDS011;8702;48.130;-1.696;2023-04-24T09:23:23;5.23;;;2.20;;
17173;SDS011;8702;48.130;-1.696;2023-04-24T09:25:54;4.40;;;2.20;;
17173;SDS011;8702;48.130;-1.696;2023-04-24T09:28:25;5.80;;;2.50;;
17173;SDS011;8702;48.130;-1.696;2023-04-24T09:31:02;4.53;;;2.60;;
17173;SDS011;8702;48.130;-1.696;2023-04-24T09:33:30;3.13;;;2.33;;
17173;SDS011;8702;48.130;-1.696;2023-04-24T09:35:57;6.20;;;2.67;;
17173;SDS011;8702;48.130;-1.696;2023-04-24T09:38:35;3.77;;;2.07;;
17173;SDS011;8702;48.130;-1.696;2023-04-24T09:41:04;4.67;;;2.20;;
17173;SDS011;8702;48.130;-1.696;2023-04-24T09:43:33;7.63;;;2.33;;
17173;SDS011;8702;48.130;-1.696;2023-04-24T09:46:03;4.27;;;2.40;;
17173;SDS011;8702;48.130;-1.696;2023-04-24T09:48:31;6.80;;;2.87;;
17173;SDS011;8702;48.130;-1.696;2023-04-24T09:51:00;8.77;;;2.63;;
17173;SDS011;8702;48.130;-1.696;2023-04-24T09:53:28;4.67;;;2.30;;
17173;SDS011;8702;48.130;-1.696;2023-04-24T09:55:58;8.73;;;2.70;;
17173;SDS011;8702;48.130;-1.696;2023-04-24T09:58:29;9.00;;;2.80;;
17173;SDS011;8702;48.130;-1.696;2023-04-24T10:00:56;9.60;;;2.87;;
17173;SDS011;8702;48.130;-1.696;2023-04-24T10:03:24;8.93;;;2.73;;
17173;SDS011;8702;48.130;-1.696;2023-04-24T10:05:52;8.00;;;2.70;;
17173;SDS011;8702;48.130;-1.696;2023-04-24T10:08:20;7.73;;;2.77;;
17173;SDS011;8702;48.130;-1.696;2023-04-24T10:10:50;11.30;;;2.90;;
17173;SDS011;8702;48.130;-1.696;2023-04-24T10:13:19;8.33;;;2.50;;
17173;SDS011;8702;48.130;-1.696;2023-04-24T10:15:46;10.53;;;3.00;;
17173;SDS011;8702;48.130;-1.696;2023-04-24T10:18:14;6.30;;;2.40;;
17173;SDS011;8702;48.130;-1.696;2023-04-24T10:20:42;6.57;;;2.60;;
17173;SDS011;8702;48.130;-1.696;2023-04-24T10:23:09;5.33;;;2.37;;
17173;SDS011;8702;48.130;-1.696;2023-04-24T10:25:37;6.57;;;2.27;;
17173;SDS011;8702;48.130;-1.696;2023-04-24T10:28:04;7.27;;;3.03;;
17173;SDS011;8702;48.130;-1.696;2023-04-24T10:30:34;8.50;;;2.77;;
17173;SDS011;8702;48.130;-1.696;2023-04-24T10:33:01;9.47;;;2.70;;
17173;SDS011;8702;48.130;-1.696;2023-04-24T10:35:30;6.73;;;2.57;;
17173;SDS011;8702;48.130;-1.696;2023-04-24T10:37:59;9.07;;;2.80;;
17173;SDS011;8702;48.130;-1.696;2023-04-24T10:40:30;6.90;;;2.67;;
17173;SDS011;8702;48.130;-1.696;2023-04-24T10:42:59;6.07;;;2.40;;
17173;SDS011;8702;48.130;-1.696;2023-04-24T10:45:28;7.10;;;2.30;;
17173;SDS011;8702;48.130;-1.696;2023-04-24T10:47:59;6.87;;;2.70;;
17173;SDS011;8702;48.130;-1.696;2023-04-24T10:50:28;6.13;;;2.80;;
17173;SDS011;8702;48.130;-1.696;2023-04-24T10:53:11;9.27;;;2.93;;
17173;SDS011;8702;48.130;-1.696;2023-04-24T10:55:40;6.10;;;2.93;;
17173;SDS011;8702;48.130;-1.696;2023-04-24T10:58:09;7.27;;;3.13;;
17173;SDS011;8702;48.130;-1.696;2023-04-24T11:00:37;5.53;;;2.73;;
17173;SDS011;8702;48.130;-1.696;2023-04-24T11:03:06;6.40;;;2.90;;
17173;SDS011;8702;48.130;-1.696;2023-04-24T11:05:49;7.90;;;2.77;;
17173;SDS011;8702;48.130;-1.696;2023-04-24T11:08:28;5.93;;;2.73;;
17173;SDS011;8702;48.130;-1.696;2023-04-24T11:11:03;5.70;;;2.87;;
17173;SDS011;8702;48.130;-1.696;2023-04-24T11:16:34;7.60;;;2.77;;
17173;SDS011;8702;48.130;-1.696;2023-04-24T11:19:07;10.40;;;3.20;;
17173;SDS011;8702;48.130;-1.696;2023-04-24T11:21:41;8.60;;;2.77;;
17173;SDS011;8702;48.130;-1.696;2023-04-24T11:24:24;7.93;;;2.80;;
17173;SDS011;8702;48.130;-1.696;2023-04-24T11:27:00;9.13;;;3.13;;
17173;SDS011;8702;48.130;-1.696;2023-04-24T11:29:42;9.33;;;2.97;;
17173;SDS011;8702;48.130;-1.696;2023-04-24T11:32:18;7.10;;;2.50;;
17173;SDS011;8702;48.130;-1.696;2023-04-24T11:34:52;7.27;;;2.43;;
17173;SDS011;8702;48.130;-1.696;2023-04-24T11:37:21;9.40;;;2.93;;
17173;SDS011;8702;48.130;-1.696;2023-04-24T11:39:50;5.30;;;2.40;;
17173;SDS011;8702;48.130;-1.696;2023-04-24T11:42:18;8.27;;;2.30;;
17173;SDS011;8702;48.130;-1.696;2023-04-24T11:44:46;11.10;;;2.90;;
17173;SDS011;8702;48.130;-1.696;2023-04-24T11:47:14;9.17;;;2.40;;
17173;SDS011;8702;48.130;-1.696;2023-04-24T11:49:41;6.93;;;2.40;;
17173;SDS011;8702;48.130;-1.696;2023-04-24T11:52:09;7.87;;;2.27;;
17173;SDS011;8702;48.130;-1.696;2023-04-24T11:54:37;7.50;;;2.20;;
17173;SDS011;8702;48.130;-1.696;2023-04-24T11:57:04;8.80;;;2.23;;
17173;SDS011;8702;48.130;-1.696;2023-04-24T11:59:36;5.87;;;2.03;;
17173;SDS011;8702;48.130;-1.696;2023-04-24T12:02:03;8.03;;;2.20;;
17173;SDS011;8702;48.130;-1.696;2023-04-24T12:04:38;7.53;;;2.30;;
17173;SDS011;8702;48.130;-1.696;2023-04-24T12:07:06;7.57;;;2.53;;
17173;SDS011;8702;48.130;-1.696;2023-04-24T12:09:41;7.50;;;2.07;;
17173;SDS011;8702;48.130;-1.696;2023-04-24T12:12:09;6.97;;;1.97;;
17173;SDS011;8702;48.130;-1.696;2023-04-24T12:14:44;7.20;;;2.30;;
17173;SDS011;8702;48.130;-1.696;2023-04-24T12:17:13;4.70;;;2.20;;
17173;SDS011;8702;48.130;-1.696;2023-04-24T12:19:44;6.90;;;2.07;;
17173;SDS011;8702;48.130;-1.696;2023-04-24T12:22:15;5.87;;;2.00;;
17173;SDS011;8702;48.130;-1.696;2023-04-24T12:25:00;4.77;;;2.17;;
17173;SDS011;8702;48.130;-1.696;2023-04-24T12:27:29;7.60;;;2.60;;
17173;SDS011;8702;48.130;-1.696;2023-04-24T12:29:59;8.60;;;2.60;;
17173;SDS011;8702;48.130;-1.696;2023-04-24T12:32:27;11.60;;;2.30;;
17173;SDS011;8702;48.130;-1.696;2023-04-24T12:34:54;7.07;;;2.43;;
17173;SDS011;8702;48.130;-1.696;2023-04-24T12:37:22;5.17;;;2.00;;
17173;SDS011;8702;48.130;-1.696;2023-04-24T12:40:01;7.30;;;2.80;;
17173;SDS011;8702;48.130;-1.696;2023-04-24T12:42:31;4.93;;;2.37;;
17173;SDS011;8702;48.130;-1.696;2023-04-24T12:44:59;11.60;;;2.87;;
17173;SDS011;8702;48.130;-1.696;2023-04-24T12:47:29;5.27;;;2.30;;
17173;SDS011;8702;48.130;-1.696;2023-04-24T12:49:57;7.30;;;2.40;;
17173;SDS011;8702;48.130;-1.696;2023-04-24T12:52:25;5.20;;;2.47;;
17173;SDS011;8702;48.130;-1.696;2023-04-24T12:54:54;8.23;;;2.80;;
17173;SDS011;8702;48.130;-1.696;2023-04-24T12:57:24;9.03;;;2.30;;
17173;SDS011;8702;48.130;-1.696;2023-04-24T12:59:53;10.07;;;2.80;;
17173;SDS011;8702;48.130;-1.696;2023-04-24T13:02:21;6.33;;;2.50;;
17173;SDS011;8702;48.130;-1.696;2023-04-24T13:04:49;10.97;;;2.97;;
17173;SDS011;8702;48.130;-1.696;2023-04-24T13:07:16;6.03;;;2.37;;
17173;SDS011;8702;48.130;-1.696;2023-04-24T13:09:44;5.10;;;2.40;;
17173;SDS011;8702;48.130;-1.696;2023-04-24T13:12:11;7.17;;;2.83;;
17173;SDS011;8702;48.130;-1.696;2023-04-24T13:14:39;7.63;;;3.03;;
17173;SDS011;8702;48.130;-1.696;2023-04-24T13:17:06;5.83;;;2.20;;
17173;SDS011;8702;48.130;-1.696;2023-04-24T13:19:37;8.43;;;2.50;;
17173;SDS011;8702;48.130;-1.696;2023-04-24T13:22:05;6.93;;;2.60;;
17173;SDS011;8702;48.130;-1.696;2023-04-24T13:24:32;8.83;;;2.70;;
17173;SDS011;8702;48.130;-1.696;2023-04-24T13:27:00;6.80;;;2.40;;
17173;SDS011;8702;48.130;-1.696;2023-04-24T13:29:27;6.50;;;2.63;;
17173;SDS011;8702;48.130;-1.696;2023-04-24T13:31:56;4.10;;;2.13;;
17173;SDS011;8702;48.130;-1.696;2023-04-24T13:34:23;9.87;;;2.83;;
17173;SDS011;8702;48.130;-1.696;2023-04-24T13:36:51;7.50;;;2.23;;
17173;SDS011;8702;48.130;-1.696;2023-04-24T13:39:19;5.30;;;2.43;;
17173;SDS011;8702;48.130;-1.696;2023-04-24T13:41:46;4.90;;;2.27;;
17173;SDS011;8702;48.130;-1.696;2023-04-24T13:44:13;7.97;;;2.70;;
17173;SDS011;8702;48.130;-1.696;2023-04-24T13:46:40;6.97;;;2.20;;
17173;SDS011;8702;48.130;-1.696;2023-04-24T13:49:10;9.43;;;2.43;;
17173;SDS011;8702;48.130;-1.696;2023-04-24T13:51:38;8.03;;;2.60;;
17173;SDS011;8702;48.130;-1.696;2023-04-24T13:54:05;5.47;;;2.33;;
17173;SDS011;8702;48.130;-1.696;2023-04-24T13:56:32;8.63;;;2.43;;
17173;SDS011;8702;48.130;-1.696;2023-04-24T13:58:59;6.73;;;2.50;;
17173;SDS011;8702;48.130;-1.696;2023-04-24T14:01:27;6.37;;;2.20;;
17173;SDS011;8702;48.130;-1.696;2023-04-24T14:03:54;9.60;;;2.70;;
17173;SDS011;8702;48.130;-1.696;2023-04-24T14:06:23;7.70;;;2.37;;
17173;SDS011;8702;48.130;-1.696;2023-04-24T14:08:51;7.70;;;2.43;;
17173;SDS011;8702;48.130;-1.696;2023-04-24T14:11:18;8.17;;;2.57;;
17173;SDS011;8702;48.130;-1.696;2023-04-24T14:13:45;5.90;;;2.10;;
17173;SDS011;8702;48.130;-1.696;2023-04-24T14:16:12;11.50;;;2.50;;
17173;SDS011;8702;48.130;-1.696;2023-04-24T14:18:40;5.10;;;2.23;;
17173;SDS011;8702;48.130;-1.696;2023-04-24T14:21:07;7.40;;;2.47;;
17173;SDS011;8702;48.130;-1.696;2023-04-24T14:23:35;6.40;;;2.70;;
17173;SDS011;8702;48.130;-1.696;2023-04-24T14:26:02;10.30;;;2.70;;
17173;SDS011;8702;48.130;-1.696;2023-04-24T14:28:29;8.47;;;3.17;;
17173;SDS011;8702;48.130;-1.696;2023-04-24T14:30:56;8.30;;;2.80;;
17173;SDS011;8702;48.130;-1.696;2023-04-24T14:33:23;9.77;;;3.03;;
17173;SDS011;8702;48.130;-1.696;2023-04-24T14:35:50;6.30;;;2.87;;
17173;SDS011;8702;48.130;-1.696;2023-04-24T14:38:17;11.17;;;3.20;;
17173;SDS011;8702;48.130;-1.696;2023-04-24T14:40:45;10.73;;;2.80;;
17173;SDS011;8702;48.130;-1.696;2023-04-24T14:43:12;6.60;;;2.60;;
17173;SDS011;8702;48.130;-1.696;2023-04-24T14:45:39;6.87;;;2.53;;
17173;SDS011;8702;48.130;-1.696;2023-04-24T14:48:07;6.43;;;2.30;;
17173;SDS011;8702;48.130;-1.696;2023-04-24T14:50:34;7.13;;;2.40;;
17173;SDS011;8702;48.130;-1.696;2023-04-24T14:53:01;7.87;;;2.60;;
17173;SDS011;8702;48.130;-1.696;2023-04-24T14:55:29;6.77;;;2.33;;
17173;SDS011;8702;48.130;-1.696;2023-04-24T14:57:59;7.07;;;2.60;;